UAL169 KEWR-KAUS
Flight info
| Callsign | UAL169 |
|---|---|
| Flight time | N/A |
| Altitude | 32000 |
| Route | PARKE J6 HVQ Q68 LITTR BROBB WINDU SEWZY6 |
| Aircraft | A320/M-SDE3FGHIRWY/LB1 |
Departure
| Time | 2026-04-30 20:08 |
|---|---|
| Airport | Newark Liberty International Airport (KEWR) |
Arrival
| Time | N/A |
|---|---|
| Airport | Austin Bergstrom International Airport (KAUS) |
| Time | Latitude | Longitude | Altitude | Speed | Heading |
|---|---|---|---|---|---|
| 2026-04-30 19:43 | 40.69438 | -74.17237 | 17 ft | 0 kts | 233° |
| 2026-04-30 19:56 | 40.69447 | -74.17222 | 17 ft | 2 kts | 235° |
| 2026-04-30 19:56 | 40.69454 | -74.17209 | 18 ft | 3 kts | 211° |
| 2026-04-30 19:56 | 40.69477 | -74.17202 | 21 ft | 2 kts | 172° |
| 2026-04-30 19:56 | 40.69488 | -74.17204 | 20 ft | 2 kts | 172° |
| 2026-04-30 19:57 | 40.69494 | -74.17205 | 19 ft | 0 kts | 172° |
| 2026-04-30 20:00 | 40.69493 | -74.17205 | 19 ft | 0 kts | 172° |
| 2026-04-30 20:00 | 40.69480 | -74.17197 | 20 ft | 3 kts | 149° |
| 2026-04-30 20:01 | 40.69494 | -74.17144 | 18 ft | 3 kts | 40° |
| 2026-04-30 20:01 | 40.69510 | -74.17125 | 18 ft | 4 kts | 47° |
| 2026-04-30 20:01 | 40.69523 | -74.17073 | 19 ft | 8 kts | 79° |
| 2026-04-30 20:02 | 40.69536 | -74.16980 | 19 ft | 0 kts | 79° |
| 2026-04-30 20:03 | 40.69508 | -74.16902 | 20 ft | 11 kts | 99° |
| 2026-04-30 20:03 | 40.69552 | -74.16826 | 21 ft | 12 kts | 26° |
| 2026-04-30 20:03 | 40.69629 | -74.16779 | 20 ft | 13 kts | 25° |
| 2026-04-30 20:03 | 40.69713 | -74.16725 | 18 ft | 15 kts | 26° |
| 2026-04-30 20:04 | 40.69817 | -74.16660 | 15 ft | 18 kts | 26° |
| 2026-04-30 20:04 | 40.69926 | -74.16590 | 15 ft | 17 kts | 25° |
| 2026-04-30 20:04 | 40.70026 | -74.16526 | 16 ft | 13 kts | 27° |
| 2026-04-30 20:05 | 40.70063 | -74.16461 | 15 ft | 0 kts | 95° |
| 2026-04-30 20:05 | 40.70063 | -74.16457 | 15 ft | 1 kts | 94° |
| 2026-04-30 20:05 | 40.70021 | -74.16384 | 14 ft | 8 kts | 167° |
| 2026-04-30 20:06 | 40.69978 | -74.16398 | 15 ft | 0 kts | 206° |
| 2026-04-30 20:06 | 40.69977 | -74.16398 | 15 ft | 0 kts | 206° |
| 2026-04-30 20:07 | 40.69461 | -74.16729 | 21 ft | 108 kts | 205° |
| 2026-04-30 20:08 | 40.68609 | -74.17262 | 23 ft | 162 kts | 205° |
| 2026-04-30 20:08 | 40.67468 | -74.17952 | 295 ft | 189 kts | 201° |
| 2026-04-30 20:08 | 40.66167 | -74.18151 | 809 ft | 192 kts | 173° |
| 2026-04-30 20:08 | 40.64848 | -74.18004 | 1313 ft | 189 kts | 196° |
| 2026-04-30 20:09 | 40.63759 | -74.18845 | 1752 ft | 183 kts | 225° |
| 2026-04-30 20:09 | 40.62730 | -74.19978 | 1943 ft | 205 kts | 217° |
| 2026-04-30 20:09 | 40.60012 | -74.22132 | 2414 ft | 249 kts | 226° |
| 2026-04-30 20:10 | 40.58990 | -74.26330 | 3652 ft | 252 kts | 279° |
| 2026-04-30 20:10 | 40.59258 | -74.28626 | 4435 ft | 254 kts | 279° |
| 2026-04-30 20:10 | 40.59533 | -74.30929 | 5220 ft | 255 kts | 278° |
| 2026-04-30 20:11 | 40.60082 | -74.35558 | 6617 ft | 260 kts | 278° |
| 2026-04-30 20:11 | 40.60363 | -74.37924 | 7277 ft | 263 kts | 278° |
| 2026-04-30 20:11 | 40.60645 | -74.40317 | 7958 ft | 266 kts | 278° |
| 2026-04-30 20:12 | 40.61209 | -74.45170 | 9305 ft | 271 kts | 277° |
| 2026-04-30 20:12 | 40.61494 | -74.47637 | 9947 ft | 273 kts | 277° |
| 2026-04-30 20:12 | 40.61784 | -74.50143 | 10303 ft | 286 kts | 277° |
| 2026-04-30 20:13 | 40.62091 | -74.52824 | 10433 ft | 306 kts | 277° |
| 2026-04-30 20:13 | 40.62421 | -74.55680 | 10565 ft | 324 kts | 277° |
| 2026-04-30 20:13 | 40.62771 | -74.58687 | 10688 ft | 341 kts | 277° |
| 2026-04-30 20:13 | 40.63136 | -74.61825 | 11009 ft | 350 kts | 277° |
| 2026-04-30 20:14 | 40.63505 | -74.65004 | 11538 ft | 353 kts | 277° |
| 2026-04-30 20:14 | 40.63875 | -74.68218 | 12113 ft | 355 kts | 277° |
| 2026-04-30 20:14 | 40.64241 | -74.71432 | 12688 ft | 356 kts | 277° |
| 2026-04-30 20:14 | 40.64610 | -74.74675 | 13280 ft | 358 kts | 277° |
| 2026-04-30 20:15 | 40.64977 | -74.77914 | 13838 ft | 360 kts | 276° |
| 2026-04-30 20:15 | 40.65350 | -74.81201 | 14360 ft | 362 kts | 276° |
| 2026-04-30 20:15 | 40.65722 | -74.84483 | 14884 ft | 363 kts | 276° |
| 2026-04-30 20:15 | 40.66096 | -74.87772 | 15401 ft | 364 kts | 276° |
| 2026-04-30 20:16 | 40.66469 | -74.91080 | 15927 ft | 366 kts | 276° |
| 2026-04-30 20:16 | 40.66842 | -74.94400 | 16463 ft | 367 kts | 275° |
| 2026-04-30 20:16 | 40.67208 | -74.97694 | 16993 ft | 369 kts | 275° |
| 2026-04-30 20:16 | 40.67581 | -75.01058 | 17532 ft | 370 kts | 275° |
| 2026-04-30 20:17 | 40.67800 | -75.04421 | 18058 ft | 369 kts | 266° |
| 2026-04-30 20:17 | 40.67509 | -75.07769 | 18512 ft | 368 kts | 256° |
| 2026-04-30 20:17 | 40.66704 | -75.10963 | 18951 ft | 369 kts | 245° |
| 2026-04-30 20:17 | 40.65462 | -75.13928 | 19379 ft | 371 kts | 240° |
| 2026-04-30 20:18 | 40.64131 | -75.16846 | 19811 ft | 373 kts | 240° |
| 2026-04-30 20:18 | 40.62796 | -75.19775 | 20224 ft | 374 kts | 240° |
| 2026-04-30 20:18 | 40.61454 | -75.22718 | 20618 ft | 376 kts | 240° |
| 2026-04-30 20:18 | 40.60105 | -75.25671 | 20988 ft | 377 kts | 240° |
| 2026-04-30 20:19 | 40.58748 | -75.28635 | 21352 ft | 379 kts | 240° |
| 2026-04-30 20:19 | 40.57386 | -75.31610 | 21717 ft | 380 kts | 240° |
| 2026-04-30 20:19 | 40.56017 | -75.34596 | 22060 ft | 382 kts | 240° |
| 2026-04-30 20:19 | 40.54638 | -75.37596 | 22401 ft | 384 kts | 240° |
| 2026-04-30 20:20 | 40.53254 | -75.40608 | 22726 ft | 385 kts | 240° |
| 2026-04-30 20:20 | 40.51865 | -75.43633 | 23055 ft | 387 kts | 240° |
| 2026-04-30 20:20 | 40.50473 | -75.46664 | 23363 ft | 388 kts | 240° |
| 2026-04-30 20:20 | 40.49073 | -75.49706 | 23633 ft | 390 kts | 240° |
| 2026-04-30 20:21 | 40.47664 | -75.52757 | 23911 ft | 392 kts | 240° |
| 2026-04-30 20:21 | 40.46246 | -75.55824 | 24177 ft | 393 kts | 240° |
| 2026-04-30 20:21 | 40.44829 | -75.58884 | 24506 ft | 392 kts | 240° |
| 2026-04-30 20:21 | 40.43412 | -75.61942 | 24876 ft | 391 kts | 240° |
| 2026-04-30 20:22 | 40.42002 | -75.64991 | 25268 ft | 390 kts | 240° |
| 2026-04-30 20:22 | 40.40597 | -75.68032 | 25660 ft | 389 kts | 240° |
| 2026-04-30 20:22 | 40.39211 | -75.71025 | 26041 ft | 388 kts | 240° |
| 2026-04-30 20:22 | 40.37811 | -75.74040 | 26410 ft | 387 kts | 240° |
| 2026-04-30 20:23 | 40.36407 | -75.77052 | 26774 ft | 386 kts | 240° |
| 2026-04-30 20:23 | 40.35007 | -75.80054 | 27152 ft | 385 kts | 240° |
| 2026-04-30 20:23 | 40.33613 | -75.83048 | 27516 ft | 385 kts | 240° |
| 2026-04-30 20:23 | 40.32221 | -75.86037 | 27891 ft | 384 kts | 240° |
| 2026-04-30 20:24 | 40.30832 | -75.89016 | 28278 ft | 383 kts | 240° |
| 2026-04-30 20:24 | 40.29447 | -75.91986 | 28662 ft | 382 kts | 240° |
| 2026-04-30 20:24 | 40.28064 | -75.94949 | 29042 ft | 381 kts | 240° |
| 2026-04-30 20:24 | 40.26679 | -75.97909 | 29412 ft | 380 kts | 240° |
| 2026-04-30 20:25 | 40.23919 | -76.03804 | 30141 ft | 379 kts | 240° |
| 2026-04-30 20:25 | 40.22558 | -76.06706 | 30445 ft | 378 kts | 240° |
| 2026-04-30 20:26 | 40.19801 | -76.12581 | 31017 ft | 379 kts | 240° |
| 2026-04-30 20:26 | 40.17037 | -76.18450 | 31607 ft | 379 kts | 240° |
| 2026-04-30 20:26 | 40.15651 | -76.21389 | 31807 ft | 380 kts | 240° |
| 2026-04-30 20:27 | 40.12836 | -76.27353 | 31851 ft | 392 kts | 240° |
| 2026-04-30 20:27 | 40.09952 | -76.33509 | 31850 ft | 400 kts | 240° |
| 2026-04-30 20:28 | 40.04221 | -76.45980 | 31851 ft | 402 kts | 241° |
| 2026-04-30 20:30 | 39.96989 | -76.61594 | 31856 ft | 402 kts | 241° |
| 2026-04-30 20:31 | 39.88278 | -76.80285 | 31861 ft | 402 kts | 241° |
| 2026-04-30 20:32 | 39.80981 | -76.95835 | 31867 ft | 403 kts | 241° |
| 2026-04-30 20:33 | 39.76612 | -77.05108 | 31886 ft | 402 kts | 241° |